Terminal Aerodrome Forecast
Issued by NWS

Home | Current Version | Previous Version | Text Only | Print | Product List | Glossary On
Versions: 1 2 3 4 5 6 7 8 9 10 11 12 13 14 15 16
349
FTUS43 KMQT 300534
TAFCMX
TAF
KCMX 300534Z 3006/0106 06005KT P6SM BKN200
     FM301600 09011G18KT P6SM BKN200
     FM302300 08011G19KT P6SM OVC100
     FM010300 07009KT P6SM -RA OVC050
     FM010500 08012G21KT P6SM -RA OVC035=

USA.gov is the U.S. government's official web portal to all federal, state and local government web resources and services.